| Date | Time | Temp. (oF) | Dew Point (oF) | Rel. Hum. (%) | Press. (in.) | Wind Dir. | Wind Speed (mph) | Hourly Rainfall (in.) |
|
|---|---|---|---|---|---|---|---|---|---|
| 1 | 06/08 | 00:00 | 63 | 46 | 56 | 29.60 | W | 2 | 0.00 |
| 2 | 06/07 | 23:00 | 66 | 47 | 52 | 29.58 | N | 5 | 0.00 |
| 3 | 06/07 | 22:00 | 67 | 47 | 50 | 29.56 | W | 6 | 0.00 |
| 4 | 06/07 | 21:00 | 69 | 47 | 46 | 29.52 | W | 4 | 0.00 |
| 5 | 06/07 | 20:00 | 71 | 47 | 43 | 29.50 | NE | 3 | 0.00 |
| 6 | 06/07 | 19:00 | 75 | 49 | 41 | 29.47 | W | 7 | 0.00 |
| 7 | 06/07 | 18:00 | 78 | 50 | 39 | 29.44 | W | 0 | 0.00 |
| 8 | 06/07 | 17:00 | 77 | 58 | 54 | 29.43 | SW | 0 | 0.00 |
| 9 | 06/07 | 16:00 | 72 | 60 | 67 | 29.44 | S | 8 | 0.00 |
| 10 | 06/07 | 15:00 | 65 | 55 | 72 | 29.47 | SSW | 1 | 0.07 |
| 11 | 06/07 | 14:00 | 71 | 58 | 65 | 29.45 | SSW | 0 | 0.11 |
| 12 | 06/07 | 13:00 | 82 | 54 | 39 | 29.47 | SW | 1 | 0.00 |
| 13 | 06/07 | 12:00 | 77 | 55 | 48 | 29.49 | SSW | 7 | 0.00 |
| 14 | 06/07 | 11:00 | 78 | 59 | 53 | 29.50 | SW | 4 | 0.00 |
| 15 | 06/07 | 10:00 | 76 | 59 | 57 | 29.51 | S | 5 | 0.00 |
| 16 | 06/07 | 09:00 | 73 | 61 | 68 | 29.52 | SW | 4 | 0.00 |
| 17 | 06/07 | 08:00 | 69 | 61 | 77 | 29.53 | SSW | 1 | 0.00 |
| 18 | 06/07 | 07:00 | 65 | 59 | 83 | 29.53 | SW | 0 | 0.00 |
| 19 | 06/07 | 06:00 | 64 | 58 | 81 | 29.52 | S | 0 | 0.00 |
| 20 | 06/07 | 05:00 | 66 | 58 | 77 | 29.53 | W | 0 | 0.00 |
| 21 | 06/07 | 04:00 | 67 | 59 | 76 | 29.53 | W | 0 | 0.00 |
| 22 | 06/07 | 03:00 | 69 | 58 | 70 | 29.55 | WSW | 0 | 0.00 |
| 23 | 06/07 | 02:00 | 71 | 59 | 66 | 29.55 | SW | 3 | 0.00 |
| 24 | 06/07 | 01:00 | 72 | 58 | 63 | 29.55 | S | 6 | 0.00 |